createdAt,value
2023-04-18T00:02:01.614Z,9.96
2023-04-18T00:05:09.140Z,10.02
2023-04-18T00:08:16.331Z,10.06
2023-04-18T00:11:20.866Z,10.06
2023-04-18T00:14:27.776Z,10.01
2023-04-18T00:17:35.003Z,9.98
2023-04-18T00:20:41.287Z,10.03
2023-04-18T00:23:46.790Z,9.98
2023-04-18T00:26:51.753Z,10.12
2023-04-18T00:29:56.958Z,10.04
2023-04-18T00:33:02.921Z,10.03
2023-04-18T00:36:09.019Z,9.94
2023-04-18T00:39:14.999Z,9.81
2023-04-18T00:42:20.553Z,9.86
2023-04-18T00:45:26.975Z,9.85
2023-04-18T00:48:32.284Z,9.78
2023-04-18T00:51:38.452Z,9.80
2023-04-18T00:54:43.896Z,9.71
2023-04-18T00:57:50.869Z,9.70
2023-04-18T01:00:57.863Z,9.80
2023-04-18T01:04:03.901Z,9.65
2023-04-18T01:07:09.419Z,9.59
2023-04-18T01:10:16.149Z,9.66
2023-04-18T01:13:30.142Z,9.60
2023-04-18T01:16:36.101Z,9.62
2023-04-18T01:19:44.469Z,9.65
2023-04-18T01:22:50.366Z,9.70
2023-04-18T01:25:56.666Z,9.75
2023-04-18T01:29:02.778Z,9.76
2023-04-18T01:32:09.737Z,9.71
2023-04-18T01:35:15.478Z,9.68
2023-04-18T01:38:20.636Z,9.62
2023-04-18T01:41:25.774Z,9.61
2023-04-18T01:44:31.882Z,9.52
2023-04-18T01:47:37.820Z,9.53
2023-04-18T01:50:42.517Z,9.56
2023-04-18T01:53:48.305Z,9.60
2023-04-18T01:56:53.678Z,9.58
2023-04-18T02:00:00.300Z,9.52
2023-04-18T02:03:16.463Z,9.54
2023-04-18T02:06:23.239Z,9.40
2023-04-18T02:09:30.429Z,9.35
2023-04-18T02:12:35.934Z,9.35
2023-04-18T02:15:41.573Z,9.22
2023-04-18T02:18:47.785Z,9.19
2023-04-18T02:21:54.619Z,9.25
2023-04-18T02:25:00.717Z,9.23
2023-04-18T02:28:05.854Z,9.23
2023-04-18T02:31:11.661Z,9.24
2023-04-18T02:34:16.979Z,9.14
2023-04-18T02:37:22.993Z,9.13
2023-04-18T02:40:30.286Z,8.96
2023-04-18T02:43:35.868Z,8.90
2023-04-18T02:46:41.215Z,8.87
2023-04-18T02:49:46.808Z,8.85
2023-04-18T02:52:52.255Z,8.72
2023-04-18T02:55:59.625Z,8.59
2023-04-18T02:59:23.252Z,8.42
2023-04-18T03:02:30.522Z,8.45
2023-04-18T03:05:38.761Z,8.40
2023-04-18T03:09:00.457Z,8.29
2023-04-18T03:12:08.899Z,8.26
2023-04-18T03:15:14.108Z,8.27
2023-04-18T03:18:20.508Z,8.28
2023-04-18T03:21:28.513Z,8.37
2023-04-18T03:24:33.573Z,8.30
2023-04-18T03:27:38.756Z,8.39
2023-04-18T03:30:46.442Z,8.47
2023-04-18T03:33:52.421Z,8.51
2023-04-18T03:36:58.298Z,8.57
2023-04-18T03:40:06.538Z,8.51
2023-04-18T03:43:14.910Z,8.66
2023-04-18T03:46:20.793Z,8.68
2023-04-18T03:49:26.097Z,8.64
2023-04-18T03:52:31.544Z,8.85
2023-04-18T03:55:36.697Z,8.96
2023-04-18T03:58:43.097Z,8.86
2023-04-18T04:01:48.050Z,8.89
2023-04-18T04:04:55.772Z,9.00
2023-04-18T04:08:01.319Z,9.02
2023-04-18T04:11:07.604Z,9.14
2023-04-18T04:14:14.695Z,9.31
2023-04-18T04:17:20.393Z,9.17
2023-04-18T04:20:28.526Z,9.20
2023-04-18T04:23:35.993Z,9.24
2023-04-18T04:26:43.323Z,9.26
2023-04-18T04:29:50.958Z,9.14
2023-04-18T04:32:58.836Z,9.12
2023-04-18T04:36:04.624Z,9.45
2023-04-18T04:39:15.568Z,9.32
2023-04-18T04:42:38.093Z,9.21
2023-04-18T04:45:46.323Z,9.09
2023-04-18T04:48:54.213Z,9.22
2023-04-18T04:52:01.400Z,9.17
2023-04-18T04:55:07.679Z,9.26
2023-04-18T04:58:13.014Z,9.31
2023-04-18T05:01:28.880Z,9.19
2023-04-18T05:04:34.893Z,9.24
2023-04-18T05:07:41.242Z,9.05
2023-04-18T05:10:48.374Z,9.07
2023-04-18T05:13:54.778Z,9.08
2023-04-18T05:17:00.227Z,9.15
2023-04-18T05:20:06.826Z,9.27
2023-04-18T05:23:12.419Z,9.29
2023-04-18T05:26:22.110Z,9.38
2023-04-18T05:29:27.714Z,9.37
2023-04-18T05:32:33.777Z,9.28
2023-04-18T05:35:43.605Z,9.09
2023-04-18T05:38:48.097Z,9.19
2023-04-18T05:41:53.413Z,9.31
2023-04-18T05:45:01.553Z,9.67
2023-04-18T05:48:07.105Z,9.81
2023-04-18T05:51:13.032Z,10.05
2023-04-18T05:54:18.693Z,10.08
2023-04-18T05:57:24.233Z,9.94
2023-04-18T06:00:30.162Z,10.02
2023-04-18T06:03:35.972Z,9.95
2023-04-18T06:06:42.286Z,9.97
2023-04-18T06:09:49.837Z,10.16
2023-04-18T06:12:54.778Z,10.35
2023-04-18T06:16:00.318Z,10.65
2023-04-18T06:19:06.462Z,10.75
2023-04-18T06:22:11.416Z,11.08
2023-04-18T06:25:16.829Z,11.08
2023-04-18T06:28:22.616Z,11.26
2023-04-18T06:31:28.848Z,11.38
2023-04-18T06:34:35.616Z,10.98
2023-04-18T06:37:41.711Z,10.77
2023-04-18T06:40:47.755Z,10.69
2023-04-18T06:44:03.511Z,10.56
2023-04-18T06:46:59.842Z,10.72
2023-04-18T06:50:06.224Z,10.90
2023-04-18T06:53:11.104Z,11.12
2023-04-18T06:56:15.971Z,11.55
2023-04-18T06:59:21.407Z,11.62
2023-04-18T07:02:32.909Z,11.74
2023-04-18T07:05:38.536Z,11.99
2023-04-18T07:08:44.855Z,11.95
2023-04-18T07:11:50.647Z,12.00
2023-04-18T07:14:55.827Z,11.93
2023-04-18T07:18:01.332Z,11.71
2023-04-18T07:21:06.680Z,11.48
2023-04-18T07:24:12.143Z,11.56
2023-04-18T07:27:18.302Z,11.65
2023-04-18T07:30:24.987Z,11.85
2023-04-18T07:33:31.775Z,12.02
2023-04-18T07:36:38.351Z,12.09
2023-04-18T07:39:43.799Z,12.17
2023-04-18T07:42:50.377Z,12.05
2023-04-18T07:45:56.060Z,12.22
2023-04-18T07:49:01.096Z,12.24
2023-04-18T07:52:06.378Z,12.14
2023-04-18T07:55:14.086Z,12.31
2023-04-18T07:58:19.475Z,12.39
2023-04-18T08:01:29.263Z,12.10
2023-04-18T08:04:37.068Z,12.19
2023-04-18T08:07:44.248Z,12.23
2023-04-18T08:10:52.348Z,12.38
2023-04-18T08:13:59.985Z,12.45
2023-04-18T08:17:06.237Z,12.67
2023-04-18T08:20:14.041Z,12.61
2023-04-18T08:23:20.851Z,12.58
2023-04-18T08:26:26.684Z,12.63
2023-04-18T08:29:32.022Z,12.81
2023-04-18T08:32:38.133Z,12.73
2023-04-18T08:35:43.307Z,12.83
2023-04-18T08:38:49.229Z,13.08
2023-04-18T08:41:55.211Z,13.25
2023-04-18T08:45:00.610Z,13.17
2023-04-18T08:48:07.882Z,13.20
2023-04-18T08:51:13.785Z,13.34
2023-04-18T08:54:20.106Z,13.51
2023-04-18T08:57:32.420Z,13.42
2023-04-18T09:00:37.436Z,13.35
2023-04-18T09:03:55.038Z,13.27
2023-04-18T09:07:07.750Z,13.47
2023-04-18T09:10:13.130Z,13.53
2023-04-18T09:13:19.850Z,13.57
2023-04-18T09:16:27.121Z,13.56
2023-04-18T09:19:33.121Z,13.64
2023-04-18T09:22:40.007Z,13.57
2023-04-18T09:25:59.176Z,13.59
2023-04-18T09:29:04.674Z,13.65
2023-04-18T09:32:14.417Z,13.81
2023-04-18T09:35:20.188Z,13.88
2023-04-18T09:38:25.466Z,14.13
2023-04-18T09:41:31.456Z,14.26
2023-04-18T09:44:39.483Z,14.35
2023-04-18T09:47:51.315Z,14.42
2023-04-18T09:50:58.506Z,14.54
2023-04-18T09:54:03.941Z,14.76
2023-04-18T09:57:09.802Z,14.91
2023-04-18T10:00:27.636Z,15.01
2023-04-18T10:03:36.884Z,15.10
2023-04-18T10:06:44.489Z,15.03
2023-04-18T10:09:51.591Z,15.07
2023-04-18T10:12:58.260Z,15.26
2023-04-18T10:16:06.220Z,14.86
2023-04-18T10:19:12.091Z,14.91
2023-04-18T10:22:17.753Z,14.94
2023-04-18T10:25:31.268Z,15.16
2023-04-18T10:28:39.465Z,15.28
2023-04-18T10:31:45.559Z,15.05
2023-04-18T10:34:52.932Z,15.05
2023-04-18T10:38:08.030Z,15.44
2023-04-18T10:41:42.053Z,15.23
2023-04-18T10:44:47.420Z,15.41
2023-04-18T10:47:53.492Z,14.92
2023-04-18T10:51:33.238Z,14.96
2023-04-18T10:55:09.702Z,15.14
2023-04-18T10:58:16.682Z,15.26
2023-04-18T11:01:23.057Z,15.42
2023-04-18T11:04:29.358Z,15.42
2023-04-18T11:08:21.981Z,15.33
2023-04-18T11:11:28.388Z,15.65
2023-04-18T11:14:38.906Z,15.40
2023-04-18T11:17:54.439Z,15.56
2023-04-18T11:21:05.488Z,15.72
2023-04-18T11:24:12.162Z,15.89
2023-04-18T11:27:29.039Z,15.60
2023-04-18T11:30:40.046Z,15.59
2023-04-18T11:33:46.377Z,15.72
2023-04-18T11:36:52.435Z,15.57
2023-04-18T11:39:58.698Z,15.77
2023-04-18T11:43:04.966Z,15.90
2023-04-18T11:46:12.472Z,16.02
2023-04-18T11:49:18.773Z,16.10
2023-04-18T11:52:28.342Z,15.87
2023-04-18T11:55:34.799Z,15.72
2023-04-18T11:58:50.128Z,15.55
2023-04-18T12:01:58.869Z,15.68
2023-04-18T12:05:15.315Z,15.65
2023-04-18T12:08:27.074Z,15.73
2023-04-18T12:11:36.961Z,15.72
2023-04-18T12:14:42.351Z,15.82
2023-04-18T12:17:49.218Z,15.96
2023-04-18T12:21:02.313Z,15.88
2023-04-18T12:24:09.070Z,15.94
2023-04-18T12:27:14.709Z,16.22
2023-04-18T12:30:21.912Z,16.14
2023-04-18T12:33:27.282Z,16.13
2023-04-18T12:36:35.015Z,16.05
2023-04-18T12:39:40.977Z,16.19
2023-04-18T12:42:46.688Z,15.83
2023-04-18T12:45:52.292Z,15.93
2023-04-18T12:48:57.905Z,15.84
2023-04-18T12:52:03.207Z,15.75
2023-04-18T12:55:08.447Z,15.94
2023-04-18T12:58:13.956Z,15.86
2023-04-18T13:01:21.316Z,15.89
2023-04-18T13:04:27.444Z,16.18
2023-04-18T13:07:33.356Z,16.09
2023-04-18T13:10:39.398Z,16.05
2023-04-18T13:13:45.960Z,15.81
2023-04-18T13:16:50.987Z,15.70
2023-04-18T13:19:55.886Z,15.73
2023-04-18T13:23:01.942Z,15.66
2023-04-18T13:26:06.781Z,15.69
2023-04-18T13:29:12.689Z,15.58
2023-04-18T13:32:20.090Z,15.60
2023-04-18T13:35:27.912Z,15.51
2023-04-18T13:38:33.610Z,15.60
2023-04-18T13:41:40.257Z,15.76
2023-04-18T13:44:45.836Z,15.82
2023-04-18T13:47:51.265Z,15.80
2023-04-18T13:50:58.221Z,15.73
2023-04-18T13:54:07.191Z,15.81
2023-04-18T13:57:16.620Z,15.75
2023-04-18T14:00:23.818Z,15.80
2023-04-18T14:03:29.831Z,15.61
2023-04-18T14:06:35.848Z,15.55
2023-04-18T14:09:41.815Z,15.56
2023-04-18T14:12:47.108Z,15.58
2023-04-18T14:15:53.349Z,15.69
2023-04-18T14:19:01.140Z,15.56
2023-04-18T14:22:07.143Z,15.68
2023-04-18T14:25:12.182Z,15.68
2023-04-18T14:28:24.408Z,15.82
2023-04-18T14:31:30.994Z,15.84
2023-04-18T14:34:38.789Z,15.73
2023-04-18T14:37:44.431Z,15.72
2023-04-18T14:40:50.214Z,15.86
2023-04-18T14:43:56.021Z,15.91
2023-04-18T14:47:00.942Z,15.66
2023-04-18T14:50:06.296Z,15.58
2023-04-18T14:53:11.540Z,15.40
2023-04-18T14:56:17.734Z,15.46
2023-04-18T14:59:23.160Z,15.64
2023-04-18T15:02:28.992Z,15.49
2023-04-18T15:05:35.793Z,15.43
2023-04-18T15:08:41.576Z,15.36
2023-04-18T15:11:47.070Z,15.17
2023-04-18T15:14:52.683Z,15.21
2023-04-18T15:17:59.513Z,15.51
2023-04-18T15:21:05.669Z,15.18
2023-04-18T15:24:11.433Z,15.11
2023-04-18T15:27:17.863Z,15.03
2023-04-18T15:30:25.590Z,14.91
2023-04-18T15:33:31.809Z,14.95
2023-04-18T15:36:38.227Z,14.87
2023-04-18T15:39:44.261Z,14.96
2023-04-18T15:42:50.636Z,14.99
2023-04-18T15:45:55.556Z,14.85
2023-04-18T15:49:01.845Z,14.93
2023-04-18T15:52:09.150Z,14.87
2023-04-18T15:55:13.979Z,14.64
2023-04-18T15:58:20.387Z,14.51
2023-04-18T16:01:28.259Z,14.54
2023-04-18T16:04:34.938Z,14.61
2023-04-18T16:07:40.910Z,14.59
2023-04-18T16:10:46.692Z,14.52
2023-04-18T16:13:51.860Z,14.43
2023-04-18T16:16:58.463Z,14.40
2023-04-18T16:20:04.764Z,14.28
2023-04-18T16:23:10.275Z,14.15
2023-04-18T16:26:15.623Z,14.06
2023-04-18T16:29:21.470Z,13.96
2023-04-18T16:32:27.033Z,13.81
2023-04-18T16:35:32.832Z,13.77
2023-04-18T16:38:38.218Z,13.66
2023-04-18T16:41:43.184Z,13.27
2023-04-18T16:44:48.080Z,13.22
2023-04-18T16:47:53.860Z,13.45
2023-04-18T16:50:59.850Z,13.39
2023-04-18T16:54:06.488Z,13.21
2023-04-18T17:00:54.172Z,13.12
2023-04-18T17:04:00.697Z,12.87
2023-04-18T17:07:05.927Z,12.81
2023-04-18T17:10:12.662Z,12.81
2023-04-18T17:13:18.671Z,12.82
2023-04-18T17:16:24.673Z,12.63
2023-04-18T17:19:30.362Z,12.52
2023-04-18T17:22:37.990Z,12.52
2023-04-18T17:25:43.940Z,12.43
2023-04-18T17:28:48.752Z,12.30
2023-04-18T17:31:55.987Z,12.23
2023-04-18T17:35:02.778Z,12.14
2023-04-18T17:38:01.397Z,12.16
2023-04-18T17:41:18.204Z,12.09
2023-04-18T17:44:24.000Z,12.12
2023-04-18T17:47:29.692Z,12.12
2023-04-18T17:50:35.162Z,12.01
2023-04-18T17:53:41.043Z,11.97
2023-04-18T17:56:46.372Z,11.75
2023-04-18T17:59:51.588Z,11.83
2023-04-18T18:02:57.936Z,12.06
2023-04-18T18:06:04.408Z,11.88
2023-04-18T18:09:09.327Z,11.91
2023-04-18T18:12:15.041Z,12.05
2023-04-18T18:15:22.719Z,11.97
2023-04-18T18:18:27.683Z,11.91
2023-04-18T18:21:33.104Z,11.91
2023-04-18T18:24:39.537Z,11.83
2023-04-18T18:27:45.678Z,11.79
2023-04-18T18:30:51.274Z,11.66
2023-04-18T18:33:56.488Z,11.81
2023-04-18T18:37:03.323Z,11.52
2023-04-18T18:40:10.982Z,11.67
2023-04-18T18:43:15.714Z,11.59
2023-04-18T18:46:21.806Z,11.44
2023-04-18T18:49:28.393Z,11.37
2023-04-18T18:52:38.121Z,11.30
2023-04-18T18:55:44.267Z,11.45
2023-04-18T18:58:50.434Z,11.16
2023-04-18T19:01:55.882Z,11.15
2023-04-18T19:05:01.807Z,11.31
2023-04-18T19:08:10.380Z,11.07
2023-04-18T19:11:17.462Z,10.98
2023-04-18T19:14:22.407Z,10.92
2023-04-18T19:17:29.068Z,11.03
2023-04-18T19:20:33.683Z,10.94
2023-04-18T19:23:40.680Z,11.41
2023-04-18T19:26:47.157Z,11.33
2023-04-18T19:29:53.605Z,11.30
2023-04-18T19:32:59.600Z,11.09
2023-04-18T19:36:04.653Z,11.11
2023-04-18T19:39:11.212Z,11.14
2023-04-18T19:42:17.732Z,10.96
2023-04-18T19:45:24.121Z,11.13
2023-04-18T19:48:31.278Z,11.00
2023-04-18T19:51:36.858Z,10.86
2023-04-18T19:54:44.676Z,10.91
2023-04-18T19:57:54.710Z,10.90
2023-04-18T20:01:00.338Z,10.71
2023-04-18T20:04:06.804Z,10.73
2023-04-18T20:07:13.018Z,10.97
2023-04-18T20:10:18.372Z,10.48
2023-04-18T20:13:23.568Z,10.48
2023-04-18T20:16:29.235Z,10.59
2023-04-18T20:19:36.258Z,10.78
2023-04-18T20:22:41.475Z,10.83
2023-04-18T20:25:48.099Z,10.75
2023-04-18T20:28:53.268Z,10.66
2023-04-18T20:31:51.700Z,10.45
2023-04-18T20:34:58.459Z,10.44
2023-04-18T20:38:04.314Z,10.31
2023-04-18T20:41:10.242Z,10.50
2023-04-18T20:44:16.932Z,10.38
2023-04-18T20:47:22.440Z,10.30
2023-04-18T20:50:28.568Z,10.37
2023-04-18T20:53:36.359Z,10.20
2023-04-18T20:56:42.418Z,10.26
2023-04-18T20:59:47.455Z,10.19
2023-04-18T21:02:53.786Z,10.11
2023-04-18T21:05:59.541Z,9.99
2023-04-18T21:09:05.655Z,10.08
2023-04-18T21:12:10.405Z,10.05
2023-04-18T21:15:15.289Z,9.99
2023-04-18T21:18:20.503Z,10.07
2023-04-18T21:21:19.827Z,9.93
2023-04-18T21:24:24.988Z,9.90
2023-04-18T21:27:30.945Z,9.93
2023-04-18T21:30:36.421Z,9.95
2023-04-18T21:33:42.184Z,9.96
2023-04-18T21:36:48.593Z,9.84
2023-04-18T21:39:53.282Z,9.91
2023-04-18T21:42:58.374Z,10.03
2023-04-18T21:46:06.099Z,10.06
2023-04-18T21:49:12.756Z,10.15
2023-04-18T21:52:17.463Z,10.24
2023-04-18T21:55:23.763Z,10.33
2023-04-18T21:58:28.660Z,10.10
2023-04-18T22:01:33.956Z,10.24
2023-04-18T22:04:40.362Z,10.07
2023-04-18T22:07:57.588Z,10.07
2023-04-18T22:10:56.520Z,10.32
2023-04-18T22:14:04.285Z,10.08
2023-04-18T22:17:13.404Z,10.06
2023-04-18T22:20:21.330Z,10.16
2023-04-18T22:23:26.183Z,10.07
2023-04-18T22:26:32.228Z,10.08
2023-04-18T22:29:36.679Z,10.08
2023-04-18T22:32:41.192Z,10.05
2023-04-18T22:35:46.911Z,10.15
2023-04-18T22:38:53.563Z,10.25
2023-04-18T22:42:00.136Z,10.19
2023-04-18T22:45:04.981Z,10.26
2023-04-18T22:48:10.885Z,10.12
2023-04-18T22:51:15.691Z,10.04
2023-04-18T22:54:22.224Z,9.98
2023-04-18T22:57:27.670Z,9.91
2023-04-18T23:00:32.857Z,9.90
2023-04-18T23:03:40.941Z,9.95
2023-04-18T23:06:45.613Z,9.83
2023-04-18T23:09:51.137Z,9.58
2023-04-18T23:12:56.655Z,9.54
2023-04-18T23:16:02.265Z,9.75
2023-04-18T23:19:07.692Z,9.76
2023-04-18T23:22:13.092Z,9.85
2023-04-18T23:25:18.776Z,9.62
2023-04-18T23:28:24.141Z,9.65
2023-04-18T23:31:22.984Z,9.60
2023-04-18T23:34:28.567Z,9.83
2023-04-18T23:37:34.577Z,9.89
2023-04-18T23:40:39.877Z,10.08
2023-04-18T23:43:44.941Z,10.09
2023-04-18T23:46:50.224Z,10.21
2023-04-18T23:49:55.540Z,10.32
2023-04-18T23:53:02.913Z,10.36
2023-04-18T23:56:08.732Z,10.51
2023-04-18T23:59:14.382Z,10.42
